Time;durP1;ratioP1;P1;durP2;ratioP2;P2;SDS_P1;SDS_P2;PMS_P1;PMS_P2;Temp;Humidity;BMP_temperature;BMP_pressure;BME280_temperature;BME280_humidity;BME280_pressure;Samples;Min_cycle;Max_cycle;Signal;HPM_P1;HPM_P2
2022/03/29 00:02:01;;;;;;;19.80;10.60;;;;;;;10.90;51.55;98248.73;220223;1273;23000;-70
2022/03/29 00:07:14;;;;;;;;;;;;;;;;;;;;;
2022/03/29 00:12:16;;;;;;;23.00;10.80;;;;;;;10.72;52.28;98244.67;220179;1273;22597;-69
2022/03/29 00:23:58;;;;;;;17.20;9.90;;;;;;;10.60;54.20;98232.11;220193;1273;22476;-69
2022/03/29 00:29:18;;;;;;;14.00;9.30;;;;;;;10.50;55.33;98223.92;219766;1273;22836;-69
2022/03/29 00:34:29;;;;;;;15.80;9.20;;;;;;;10.39;55.86;98212.38;220161;1273;23417;-70
2022/03/29 00:39:33;;;;;;;15.50;9.10;;;;;;;10.34;56.28;98199.02;220811;1274;22486;-70
2022/03/29 00:44:38;;;;;;;15.60;10.30;;;;;;;10.31;56.65;98178.73;220242;1273;22904;-69
2022/03/29 00:49:40;;;;;;;15.50;10.20;;;;;;;10.27;57.04;98175.66;220286;1273;25889;-70
2022/03/29 00:54:50;;;;;;;19.50;10.90;;;;;;;10.23;57.30;98154.29;219560;1276;25895;-69
2022/03/29 01:00:07;;;;;;;17.40;11.70;;;;;;;10.14;57.40;98150.55;220187;1273;25380;-69
2022/03/29 01:05:09;;;;;;;20.10;11.80;;;;;;;10.01;57.76;98135.41;220106;1274;22559;-69
2022/03/29 01:10:12;;;;;;;20.40;11.30;;;;;;;9.89;58.38;98137.33;220066;1274;22473;-69
2022/03/29 01:15:16;;;;;;;20.40;12.40;;;;;;;9.67;59.18;98141.45;219814;1274;24901;-69
2022/03/29 01:20:30;;;;;;;16.10;11.00;;;;;;;9.47;59.36;98129.32;220039;1274;22539;-69
2022/03/29 01:25:42;;;;;;;17.20;11.60;;;;;;;9.30;59.86;98121.66;220085;1274;22681;-70
2022/03/29 01:30:44;;;;;;;19.70;12.50;;;;;;;9.16;60.21;98096.97;219716;1274;22666;-69
2022/03/29 01:35:48;;;;;;;21.40;12.70;;;;;;;9.04;60.91;98097.16;219981;1274;25434;-70
2022/03/29 01:40:50;;;;;;;19.30;13.10;;;;;;;8.94;61.92;98092.38;219783;1274;22711;-68
2022/03/29 01:45:52;;;;;;;22.40;13.40;;;;;;;8.93;62.69;98090.60;219706;1274;22551;-69
2022/03/29 01:50:55;;;;;;;24.20;12.60;;;;;;;8.97;63.12;98092.17;220073;1274;23969;-69
2022/03/29 01:56:00;;;;;;;22.10;13.30;;;;;;;9.01;63.45;98083.70;219944;1274;23813;-69
2022/03/29 02:01:02;;;;;;;20.10;13.00;;;;;;;8.99;63.60;98072.33;220150;1274;25326;-68
2022/03/29 02:06:05;;;;;;;22.70;13.40;;;;;;;8.90;63.71;98059.48;219668;1274;22701;-69
2022/03/29 02:11:08;;;;;;;20.10;12.90;;;;;;;8.81;63.59;98053.13;220026;1274;24284;-68
2022/03/29 02:16:10;;;;;;;18.80;12.90;;;;;;;8.74;63.83;98047.11;220300;1273;24216;-68
2022/03/29 02:21:14;;;;;;;20.20;13.40;;;;;;;8.66;63.84;98043.45;220264;1273;24331;-68
2022/03/29 02:26:17;;;;;;;25.00;14.40;;;;;;;8.56;64.14;98038.82;220276;1274;22474;-68
2022/03/29 02:31:19;;;;;;;21.40;14.20;;;;;;;8.43;64.67;98044.13;220319;1273;22480;-69
2022/03/29 02:36:22;;;;;;;22.30;13.90;;;;;;;8.33;65.07;98041.18;220330;1273;22578;-70
2022/03/29 02:41:24;;;;;;;25.40;14.90;;;;;;;8.28;65.47;98040.24;220239;1273;23661;-69
2022/03/29 02:46:26;;;;;;;27.50;16.10;;;;;;;8.23;66.06;98045.51;220083;1273;25345;-69
2022/03/29 02:51:29;;;;;;;28.90;17.10;;;;;;;8.13;66.07;98044.42;220022;1273;22578;-69
2022/03/29 02:56:31;;;;;;;27.90;16.80;;;;;;;8.06;66.33;98041.38;220018;1274;22475;-69
2022/03/29 03:01:42;;;;;;;26.00;16.10;;;;;;;8.00;66.72;98045.52;220221;1273;22516;-69
2022/03/29 03:06:45;;;;;;;25.20;16.10;;;;;;;7.84;68.02;98040.08;220022;1274;22525;-69
2022/03/29 03:11:47;;;;;;;25.00;16.40;;;;;;;7.69;69.17;98031.44;220075;1273;22574;-68
2022/03/29 03:16:49;;;;;;;22.20;15.30;;;;;;;7.59;69.26;98038.39;220230;1273;24941;-69
2022/03/29 03:22:11;;;;;;;25.60;16.30;;;;;;;7.54;69.18;98041.44;220110;1273;23685;-69
2022/03/29 03:27:16;;;;;;;22.30;15.00;;;;;;;7.48;69.48;98055.05;220206;1273;24215;-69
2022/03/29 03:32:19;;;;;;;25.80;15.80;;;;;;;7.46;69.30;98061.70;219785;1274;22464;-69
2022/03/29 03:37:21;;;;;;;23.00;15.30;;;;;;;7.42;69.73;98059.92;220123;1273;25330;-70
2022/03/29 03:42:41;;;;;;;;;;;;;;;;;;;;;
2022/03/29 03:47:46;;;;;;;22.00;13.90;;;;;;;7.32;70.14;98048.09;220091;1273;22534;-70
2022/03/29 03:53:01;;;;;;;24.80;15.70;;;;;;;7.20;70.45;98050.31;220012;1272;25814;-68
2022/03/29 03:58:08;;;;;;;25.30;16.50;;;;;;;7.07;70.64;98048.95;219874;1274;25446;-70
2022/03/29 04:03:12;;;;;;;25.90;17.10;;;;;;;6.95;70.90;98047.21;220174;1273;25325;-70
2022/03/29 04:08:40;;;;;;;27.30;17.40;;;;;;;6.86;71.42;98043.91;220136;1273;22632;-69
2022/03/29 04:14:04;;;;;;;25.60;16.30;;;;;;;6.67;72.24;98043.82;220007;1274;23314;-69
2022/03/29 04:19:07;;;;;;;25.00;16.20;;;;;;;6.57;72.89;98025.00;220185;1272;22535;-71
2022/03/29 04:24:09;;;;;;;29.30;17.50;;;;;;;6.51;72.93;98013.50;220154;1273;22482;-69
2022/03/29 04:29:11;;;;;;;27.20;18.10;;;;;;;6.48;73.39;98018.75;220059;1273;25869;-69
2022/03/29 04:34:14;;;;;;;25.70;17.10;;;;;;;6.53;73.31;98011.21;220402;1273;24808;-68
2022/03/29 04:39:16;;;;;;;26.20;17.90;;;;;;;6.63;73.67;98016.33;220144;1273;22487;-68
2022/03/29 04:44:19;;;;;;;24.90;15.80;;;;;;;6.75;73.83;98018.57;219693;1276;24307;-68
2022/03/29 04:49:37;;;;;;;25.00;17.10;;;;;;;6.86;73.71;98011.27;220173;1273;22773;-68
2022/03/29 04:54:39;;;;;;;25.20;16.10;;;;;;;6.91;73.60;98028.67;220024;1275;22571;-68
2022/03/29 04:59:41;;;;;;;28.60;18.40;;;;;;;6.97;74.02;98033.94;220120;1274;22529;-69
2022/03/29 05:04:50;;;;;;;24.60;16.50;;;;;;;7.04;74.17;98039.77;220426;1273;23607;-67
2022/03/29 05:09:53;;;;;;;24.90;16.70;;;;;;;7.12;74.25;98043.27;220049;1275;24242;-69
2022/03/29 05:14:59;;;;;;;27.80;16.30;;;;;;;7.22;74.09;98046.23;220292;1273;22485;-68
2022/03/29 05:20:07;;;;;;;20.20;13.90;;;;;;;7.34;74.10;98041.73;220129;1273;22619;-70
2022/03/29 05:25:14;;;;;;;23.60;15.80;;;;;;;7.46;74.11;98041.27;221513;1273;22847;-69
2022/03/29 05:30:18;;;;;;;23.70;15.40;;;;;;;7.59;73.93;98050.33;219896;1275;22526;-69
2022/03/29 05:35:41;;;;;;;26.80;15.10;;;;;;;7.67;73.64;98053.70;220100;1273;23083;-69
2022/03/29 05:40:46;;;;;;;28.00;15.80;;;;;;;7.70;73.42;98055.52;220298;1273;22564;-68
2022/03/29 05:51:28;;;;;;;28.10;17.30;;;;;;;7.60;74.15;98088.76;220654;1273;22594;-69
2022/03/29 05:56:31;;;;;;;24.10;15.30;;;;;;;7.66;73.73;98082.18;220825;1274;23127;-69
2022/03/29 06:01:36;;;;;;;29.20;17.40;;;;;;;7.76;73.76;98081.84;220337;1274;25350;-68
2022/03/29 06:06:40;;;;;;;27.60;17.90;;;;;;;7.96;73.64;98084.29;221179;1273;22674;-69
2022/03/29 06:11:42;;;;;;;25.40;17.00;;;;;;;8.19;73.61;98074.92;220668;1273;24275;-68
2022/03/29 06:16:47;;;;;;;25.70;15.10;;;;;;;8.40;73.11;98064.19;220160;1273;23375;-69
2022/03/29 06:21:50;;;;;;;26.20;15.90;;;;;;;8.58;72.98;98067.34;220739;1273;24174;-68
2022/03/29 06:26:52;;;;;;;20.80;14.30;;;;;;;8.72;72.61;98060.80;220303;1273;25368;-67
2022/03/29 06:31:56;;;;;;;22.70;14.10;;;;;;;8.93;72.55;98063.86;220752;1271;22654;-68
2022/03/29 06:36:59;;;;;;;21.70;14.50;;;;;;;9.14;72.14;98066.54;220347;1274;24503;-70
2022/03/29 06:42:08;;;;;;;23.00;15.80;;;;;;;9.37;71.70;98063.81;220726;1273;23130;-69
2022/03/29 06:47:24;;;;;;;25.30;16.00;;;;;;;9.56;71.14;98062.98;220458;1273;24339;-69
2022/03/29 06:52:39;;;;;;;22.70;14.80;;;;;;;9.73;70.77;98069.34;220623;1273;24293;-69
2022/03/29 06:57:46;;;;;;;19.20;14.00;;;;;;;9.85;70.53;98074.43;221104;1273;24954;-69
2022/03/29 07:02:49;;;;;;;25.30;14.80;;;;;;;10.01;70.52;98074.72;220268;1273;22590;-69
2022/03/29 07:07:52;;;;;;;23.50;16.00;;;;;;;10.21;70.12;98074.51;220481;1274;22621;-69
2022/03/29 07:13:01;;;;;;;21.10;14.30;;;;;;;10.36;69.91;98074.77;220589;1273;22549;-69
2022/03/29 07:18:06;;;;;;;22.20;14.40;;;;;;;10.58;69.67;98073.20;220629;1273;22527;-69
2022/03/29 07:23:11;;;;;;;20.80;14.50;;;;;;;10.79;69.29;98073.02;220831;1273;22628;-68
2022/03/29 07:28:24;;;;;;;20.60;13.30;;;;;;;10.90;68.29;98071.67;219958;1273;505897;-69
2022/03/29 07:33:26;;;;;;;20.90;13.80;;;;;;;10.89;67.05;98071.08;220817;1273;22549;-69
2022/03/29 07:38:30;;;;;;;20.30;13.30;;;;;;;10.87;66.54;98067.63;221129;1273;25276;-69
2022/03/29 07:43:32;;;;;;;20.50;15.00;;;;;;;10.92;66.14;98063.55;220632;1273;22756;-69
2022/03/29 07:48:34;;;;;;;18.10;12.70;;;;;;;10.97;65.74;98063.80;220377;1273;22577;-69
2022/03/29 07:54:03;;;;;;;15.50;11.60;;;;;;;10.99;64.49;98066.89;220582;1273;22583;-69
2022/03/29 07:59:06;;;;;;;17.90;11.90;;;;;;;10.98;63.88;98064.38;220460;1273;25176;-69
2022/03/29 08:04:12;;;;;;;18.90;12.10;;;;;;;11.04;63.72;98065.77;220358;1274;24204;-69
2022/03/29 08:09:19;;;;;;;16.40;10.40;;;;;;;11.14;63.07;98061.48;220313;1273;23100;-69
2022/03/29 08:14:27;;;;;;;14.50;10.20;;;;;;;11.21;62.35;98060.27;220639;1273;22552;-68
2022/03/29 08:19:30;;;;;;;13.30;9.80;;;;;;;11.33;61.76;98064.38;220396;1273;24201;-68
2022/03/29 08:24:48;;;;;;;13.40;10.00;;;;;;;11.46;61.35;98068.34;220606;1273;24257;-67
2022/03/29 08:30:00;;;;;;;15.30;9.50;;;;;;;11.63;61.09;98064.54;220498;1273;23329;-68
2022/03/29 08:35:06;;;;;;;14.40;10.40;;;;;;;11.82;60.74;98062.05;220092;1276;23006;-69
2022/03/29 08:40:15;;;;;;;13.30;9.80;;;;;;;12.04;59.94;98055.08;220232;1273;22586;-69
2022/03/29 08:45:26;;;;;;;11.00;8.40;;;;;;;12.13;59.05;98055.48;220682;1273;22538;-69
2022/03/29 08:50:40;;;;;;;13.90;9.10;;;;;;;12.19;58.32;98059.38;220473;1273;22467;-70
2022/03/29 08:55:44;;;;;;;12.70;8.70;;;;;;;12.26;58.21;98061.31;220733;1273;23408;-69
2022/03/29 09:00:49;;;;;;;13.10;8.80;;;;;;;12.40;57.82;98055.89;220440;1273;23445;-69
2022/03/29 09:06:08;;;;;;;12.00;8.30;;;;;;;12.51;57.54;98056.11;220505;1273;22712;-69
2022/03/29 09:11:12;;;;;;;15.50;10.00;;;;;;;12.58;57.21;98053.19;220615;1273;23484;-69
2022/03/29 09:16:32;;;;;;;12.90;8.50;;;;;;;12.60;56.72;98050.34;220353;1273;22699;-68
2022/03/29 09:21:45;;;;;;;13.30;9.50;;;;;;;12.65;56.58;98048.79;220634;1273;22571;-69
2022/03/29 09:26:54;;;;;;;13.40;9.90;;;;;;;12.78;55.97;98045.88;220575;1273;22489;-68
2022/03/29 09:32:17;;;;;;;14.80;9.70;;;;;;;12.75;55.23;98044.91;220785;1273;22570;-69
2022/03/29 09:37:45;;;;;;;15.20;9.40;;;;;;;12.71;55.47;98041.06;220229;1273;24203;-69
2022/03/29 09:43:02;;;;;;;13.60;10.20;;;;;;;12.77;55.20;98031.87;220287;1273;22569;-70
2022/03/29 09:48:33;;;;;;;15.60;10.00;;;;;;;12.89;55.33;98025.06;220485;1273;24350;-70
2022/03/29 09:53:55;;;;;;;16.00;10.30;;;;;;;13.05;54.75;98024.46;220603;1273;22512;-70
2022/03/29 09:59:21;;;;;;;14.50;9.40;;;;;;;13.15;54.63;98024.48;220798;1273;23390;-69
2022/03/29 10:04:29;;;;;;;14.90;10.00;;;;;;;13.26;54.51;98018.55;220656;1273;22706;-70
2022/03/29 10:09:35;;;;;;;16.60;11.10;;;;;;;13.35;54.23;98023.69;221995;1273;22564;-69
2022/03/29 10:14:41;;;;;;;15.50;11.20;;;;;;;13.35;54.02;98017.67;220478;1273;24311;-70
2022/03/29 10:19:47;;;;;;;17.30;10.80;;;;;;;13.46;54.17;98009.68;220497;1273;22505;-70
2022/03/29 10:24:50;;;;;;;16.30;11.10;;;;;;;13.66;54.02;98004.80;220527;1273;22493;-70
2022/03/29 10:29:53;;;;;;;13.90;10.60;;;;;;;13.76;53.45;97996.92;220628;1273;24352;-69
2022/03/29 10:35:10;;;;;;;13.20;10.30;;;;;;;13.76;53.22;97988.54;220396;1273;22554;-68
2022/03/29 10:40:37;;;;;;;15.50;11.00;;;;;;;13.85;52.77;97985.50;220442;1274;22465;-69
2022/03/29 10:46:23;;;;;;;15.70;11.20;;;;;;;13.85;52.66;97981.42;220458;1274;25262;-69
2022/03/29 10:51:26;;;;;;;16.00;11.40;;;;;;;13.93;52.58;97969.25;220663;1273;22659;-68
2022/03/29 10:56:32;;;;;;;15.80;12.00;;;;;;;14.07;52.46;97969.27;220441;1273;24146;-68
2022/03/29 11:01:37;;;;;;;17.10;12.10;;;;;;;14.27;52.23;97961.25;220414;1273;22564;-68
2022/03/29 11:07:15;;;;;;;15.90;11.90;;;;;;;14.46;51.96;97959.66;220584;1273;24229;-68
2022/03/29 11:12:38;;;;;;;14.30;10.70;;;;;;;14.61;51.70;97951.70;220722;1273;25371;-68
2022/03/29 11:17:40;;;;;;;;;;;;;;;14.73;51.29;97944.03;220319;1274;22783;-68
2022/03/29 11:22:43;;;;;;;17.00;11.30;;;;;;;14.75;50.86;97945.46;220360;1273;25464;-68
2022/03/29 11:27:46;;;;;;;15.10;10.90;;;;;;;14.72;50.93;97949.40;220439;1273;25022;-69
2022/03/29 11:32:55;;;;;;;19.80;12.90;;;;;;;14.79;50.59;97944.77;220325;1273;24204;-69
2022/03/29 11:38:36;;;;;;;17.60;10.20;;;;;;;14.78;50.54;97935.55;220282;1274;23715;-69
2022/03/29 11:43:55;;;;;;;;;;;;;;;14.89;50.37;97932.38;220438;1274;22523;-69
2022/03/29 11:49:13;;;;;;;15.70;10.60;;;;;;;14.89;50.18;97920.89;220422;1274;22477;-69
2022/03/29 11:54:21;;;;;;;15.10;10.50;;;;;;;14.92;49.97;97913.18;220667;1274;22671;-70
2022/03/29 11:59:31;;;;;;;12.40;8.90;;;;;;;14.91;49.76;97903.05;220374;1274;22566;-70
2022/03/29 12:04:38;;;;;;;14.90;10.80;;;;;;;14.91;49.64;97894.20;221966;1274;22490;-70
2022/03/29 12:09:47;;;;;;;15.00;10.90;;;;;;;14.90;49.53;97891.01;221915;1274;22618;-69
2022/03/29 12:15:01;;;;;;;13.50;8.80;;;;;;;14.93;49.35;97886.26;220264;1273;25154;-67
2022/03/29 12:20:04;;;;;;;15.00;10.70;;;;;;;14.85;49.31;97879.40;220705;1274;24231;-67
2022/03/29 12:25:09;;;;;;;13.00;10.00;;;;;;;14.83;49.28;97873.88;220328;1273;24843;-68
2022/03/29 12:30:11;;;;;;;15.10;10.60;;;;;;;14.84;49.33;97872.75;220361;1274;23084;-68
2022/03/29 12:35:18;;;;;;;16.10;10.70;;;;;;;14.85;49.42;97863.06;220316;1273;22481;-68
2022/03/29 12:40:20;;;;;;;14.20;11.10;;;;;;;14.93;49.34;97853.34;220497;1274;22585;-66
2022/03/29 12:45:24;;;;;;;14.70;10.50;;;;;;;14.87;48.99;97849.20;220322;1273;22477;-68
2022/03/29 12:50:28;;;;;;;15.30;11.00;;;;;;;14.78;49.01;97843.36;220163;1274;23213;-68
2022/03/29 12:55:31;;;;;;;14.20;10.70;;;;;;;14.72;49.13;97833.09;220263;1274;23810;-68
2022/03/29 13:00:41;;;;;;;13.80;9.70;;;;;;;14.75;49.42;97828.15;220489;1273;22549;-68
2022/03/29 13:05:48;;;;;;;14.00;10.70;;;;;;;14.78;49.10;97821.63;220457;1274;24418;-69
2022/03/29 13:11:02;;;;;;;13.40;9.90;;;;;;;14.89;49.26;97817.89;220663;1273;22541;-70
2022/03/29 13:16:19;;;;;;;16.20;11.30;;;;;;;14.95;48.62;97805.72;221732;1273;22687;-68
2022/03/29 13:21:26;;;;;;;13.90;10.50;;;;;;;14.82;48.47;97802.82;220801;1274;24225;-69
2022/03/29 13:26:46;;;;;;;12.40;9.70;;;;;;;14.80;48.51;97799.73;220320;1274;24236;-69
2022/03/29 13:32:10;;;;;;;14.90;10.70;;;;;;;14.92;48.68;97795.77;220346;1273;24253;-68
2022/03/29 13:37:13;;;;;;;14.10;10.20;;;;;;;15.01;48.54;97791.80;220617;1273;22578;-69
2022/03/29 13:42:16;;;;;;;14.80;10.10;;;;;;;15.02;47.90;97781.12;220490;1274;22558;-69
2022/03/29 13:47:43;;;;;;;;;;;;;;;14.91;47.78;97774.11;220394;1274;25462;-68
2022/03/29 13:52:53;;;;;;;13.80;10.10;;;;;;;14.82;47.72;97760.05;220477;1273;22564;-69
2022/03/29 13:57:58;;;;;;;18.70;14.00;;;;;;;14.72;47.78;97752.60;220415;1274;23360;-69
2022/03/29 14:03:02;;;;;;;15.50;10.90;;;;;;;14.67;47.86;97752.16;220684;1274;24269;-69
2022/03/29 14:08:12;;;;;;;14.50;10.80;;;;;;;14.60;47.70;97746.59;220396;1274;25312;-70
2022/03/29 14:13:17;;;;;;;14.90;11.30;;;;;;;14.65;47.94;97733.69;220356;1272;24176;-69
2022/03/29 14:18:22;;;;;;;14.10;10.60;;;;;;;14.70;47.57;97734.83;220262;1273;22555;-69
2022/03/29 14:23:26;;;;;;;12.80;9.80;;;;;;;14.59;47.45;97734.10;220494;1273;23977;-69
2022/03/29 14:28:30;;;;;;;15.90;10.90;;;;;;;14.52;47.66;97733.53;220124;1274;24203;-69
2022/03/29 14:33:33;;;;;;;18.50;10.80;;;;;;;14.44;47.50;97724.96;219759;1276;22483;-69
2022/03/29 14:38:35;;;;;;;14.30;10.40;;;;;;;14.37;47.34;97720.38;220208;1273;22579;-69
2022/03/29 14:43:58;;;;;;;14.50;10.50;;;;;;;14.28;47.27;97716.41;220311;1273;22802;-69
2022/03/29 14:49:00;;;;;;;13.90;10.20;;;;;;;14.27;47.46;97707.44;220338;1273;22591;-69
2022/03/29 14:54:04;;;;;;;12.90;9.80;;;;;;;14.23;47.34;97701.94;220356;1274;22551;-69
2022/03/29 14:59:06;;;;;;;14.40;10.50;;;;;;;14.16;47.07;97697.64;220226;1273;25332;-69
2022/03/29 15:04:09;;;;;;;15.00;10.80;;;;;;;14.02;46.89;97696.29;220426;1273;22556;-69
2022/03/29 15:09:12;;;;;;;17.70;12.40;;;;;;;13.82;46.79;97692.19;220395;1273;24295;-69
2022/03/29 15:14:14;;;;;;;15.20;10.80;;;;;;;13.56;47.04;97685.75;220308;1273;25433;-69
2022/03/29 15:19:16;;;;;;;15.80;11.10;;;;;;;13.36;47.34;97683.08;220309;1273;24441;-69
2022/03/29 15:24:32;;;;;;;15.60;11.00;;;;;;;13.18;47.21;97680.85;220294;1273;22581;-69
2022/03/29 15:29:55;;;;;;;15.20;11.30;;;;;;;12.98;47.55;97673.73;220023;1274;22587;-69
2022/03/29 15:34:57;;;;;;;16.40;11.70;;;;;;;12.89;47.67;97670.81;220265;1274;23675;-69
2022/03/29 15:40:02;;;;;;;17.90;11.10;;;;;;;12.80;47.89;97669.90;220008;1273;25331;-70
2022/03/29 15:45:05;;;;;;;16.30;11.40;;;;;;;12.71;48.08;97671.25;221434;1273;22488;-68
2022/03/29 15:50:08;;;;;;;16.40;11.90;;;;;;;12.61;48.20;97669.27;220284;1273;24269;-68
2022/03/29 15:55:10;;;;;;;17.80;12.00;;;;;;;12.53;48.53;97670.90;220276;1273;23811;-69
2022/03/29 16:00:16;;;;;;;16.70;11.90;;;;;;;12.43;48.47;97668.62;220194;1274;22554;-69
2022/03/29 16:05:18;;;;;;;17.40;10.70;;;;;;;12.26;48.14;97665.23;219900;1274;22483;-69
2022/03/29 16:10:20;;;;;;;15.70;11.10;;;;;;;12.09;48.01;97665.44;220259;1273;24175;-69
2022/03/29 16:15:24;;;;;;;15.30;10.50;;;;;;;11.91;48.17;97670.79;220151;1273;24009;-69
2022/03/29 16:20:26;;;;;;;16.50;11.00;;;;;;;11.71;48.42;97669.86;220377;1273;24207;-68
2022/03/29 16:25:29;;;;;;;21.60;14.90;;;;;;;11.55;48.23;97668.38;220035;1273;24313;-68
2022/03/29 16:30:31;;;;;;;18.90;11.80;;;;;;;11.41;48.44;97670.16;220238;1273;24243;-68
2022/03/29 16:35:34;;;;;;;17.20;11.60;;;;;;;11.28;48.68;97669.26;221582;1273;22534;-69
2022/03/29 16:40:39;;;;;;;18.80;12.50;;;;;;;11.13;48.76;97671.47;220284;1272;22615;-67
2022/03/29 16:45:42;;;;;;;18.80;12.40;;;;;;;10.94;49.00;97671.97;220106;1273;22602;-71
2022/03/29 16:50:44;;;;;;;19.10;12.10;;;;;;;10.75;49.24;97677.91;220384;1273;22569;-68
2022/03/29 16:55:47;;;;;;;19.00;13.70;;;;;;;10.61;49.60;97675.53;220375;1273;22744;-68
2022/03/29 17:00:49;;;;;;;19.70;12.20;;;;;;;10.47;49.93;97677.35;220376;1273;25380;-67
2022/03/29 17:05:53;;;;;;;17.10;11.90;;;;;;;10.35;50.11;97681.94;220349;1273;22821;-69
2022/03/29 17:10:56;;;;;;;19.50;12.00;;;;;;;10.25;50.49;97677.80;220455;1273;25304;-67
2022/03/29 17:16:01;;;;;;;16.70;11.50;;;;;;;10.19;50.66;97689.52;220352;1273;22560;-67
2022/03/29 17:21:04;;;;;;;19.40;12.80;;;;;;;10.11;50.85;97686.73;220013;1271;22571;-68
2022/03/29 17:26:16;;;;;;;18.70;13.40;;;;;;;9.99;51.25;97691.42;220376;1273;22692;-69
2022/03/29 17:31:19;;;;;;;20.50;13.00;;;;;;;9.83;51.92;97688.17;220177;1273;22645;-69
2022/03/29 17:36:22;;;;;;;21.10;13.70;;;;;;;9.67;52.70;97692.92;220417;1273;22557;-68
2022/03/29 17:41:28;;;;;;;19.50;13.10;;;;;;;9.52;53.32;97687.61;220354;1273;22538;-68
2022/03/29 17:46:30;;;;;;;23.30;15.50;;;;;;;9.38;54.15;97694.34;219946;1274;22552;-69
2022/03/29 17:51:33;;;;;;;23.40;14.40;;;;;;;9.24;55.22;97715.25;219966;1274;23792;-69
2022/03/29 17:56:50;;;;;;;25.50;15.80;;;;;;;9.06;56.41;97715.20;220379;1273;25207;-69
2022/03/29 18:02:18;;;;;;;22.80;14.60;;;;;;;8.91;57.24;97721.48;220310;1273;22545;-69
2022/03/29 18:07:21;;;;;;;23.30;15.10;;;;;;;8.80;57.99;97722.64;220076;1274;22676;-70
2022/03/29 18:12:27;;;;;;;22.50;15.20;;;;;;;8.68;58.81;97721.30;220549;1273;22598;-69
2022/03/29 18:17:35;;;;;;;;;;;;;;;8.56;59.68;97727.02;221619;1273;25415;-70
2022/03/29 18:22:40;;;;;;;23.60;15.40;;;;;;;8.47;60.36;97727.73;220447;1273;25367;-69
2022/03/29 18:27:43;;;;;;;24.30;15.60;;;;;;;8.41;61.15;97734.08;220711;1273;22623;-70
2022/03/29 18:32:48;;;;;;;29.30;17.60;;;;;;;8.37;61.57;97730.30;221799;1273;22556;-69
2022/03/29 18:37:52;;;;;;;27.20;18.00;;;;;;;8.36;61.75;97728.20;220075;1274;22473;-70
2022/03/29 18:42:54;;;;;;;30.00;18.70;;;;;;;8.37;62.19;97732.57;220624;1273;22476;-69
2022/03/29 18:48:00;;;;;;;28.60;17.80;;;;;;;8.35;62.79;97729.44;220021;1273;24231;-69
2022/03/29 18:53:04;;;;;;;29.20;17.80;;;;;;;8.32;63.01;97730.11;220284;1273;25214;-69
2022/03/29 18:58:07;;;;;;;30.20;19.00;;;;;;;8.25;63.41;97728.97;220300;1273;25331;-69
2022/03/29 19:03:10;;;;;;;27.70;18.10;;;;;;;8.19;63.80;97723.75;220122;1273;22541;-69
2022/03/29 19:08:14;;;;;;;29.50;18.50;;;;;;;8.14;64.17;97718.30;220627;1273;22674;-69
2022/03/29 19:13:17;;;;;;;27.90;18.40;;;;;;;8.11;64.57;97723.33;220813;1273;22486;-69
2022/03/29 19:18:27;;;;;;;30.10;18.20;;;;;;;8.06;64.79;97728.02;221424;1273;22555;-69
2022/03/29 19:23:29;;;;;;;32.30;19.20;;;;;;;8.01;65.35;97724.98;219970;1273;399274;-69
2022/03/29 19:28:35;;;;;;;27.00;18.10;;;;;;;7.99;65.57;97724.48;220007;1274;22538;-69
2022/03/29 19:33:37;;;;;;;30.80;19.40;;;;;;;7.99;65.77;97726.55;220270;1273;22489;-69
2022/03/29 19:39:31;;;;;;;29.90;19.00;;;;;;;7.98;66.06;97729.39;220402;1273;23358;-69
2022/03/29 19:44:45;;;;;;;27.90;19.10;;;;;;;7.98;66.14;97739.91;220382;1273;22816;-68
2022/03/29 19:49:49;;;;;;;30.60;19.00;;;;;;;7.93;66.35;97739.37;219944;1273;22895;-69
2022/03/29 19:54:57;;;;;;;32.00;19.10;;;;;;;7.91;66.07;97742.50;220076;1273;22578;-68
2022/03/29 20:00:00;;;;;;;30.50;19.10;;;;;;;7.87;66.28;97739.84;220067;1273;22647;-69
2022/03/29 20:05:04;;;;;;;28.90;17.60;;;;;;;7.79;66.01;97737.80;220117;1273;22899;-67
2022/03/29 20:10:08;;;;;;;29.30;18.40;;;;;;;7.73;65.57;97737.76;220394;1273;22525;-69
2022/03/29 20:15:11;;;;;;;28.80;17.60;;;;;;;7.68;65.06;97739.23;220045;1273;23887;-68
2022/03/29 20:20:14;;;;;;;26.70;16.80;;;;;;;7.65;64.96;97744.46;220022;1273;25459;-69
2022/03/29 20:25:21;;;;;;;26.00;16.50;;;;;;;7.63;64.89;97742.74;219836;1273;25409;-69
2022/03/29 20:30:26;;;;;;;30.10;17.80;;;;;;;7.61;64.71;97742.13;220749;1273;22713;-68
2022/03/29 20:35:29;;;;;;;28.10;16.90;;;;;;;7.59;64.82;97748.34;219993;1274;25284;-68
2022/03/29 20:40:32;;;;;;;31.00;18.60;;;;;;;7.57;64.91;97748.16;220410;1273;22705;-69
2022/03/29 20:45:39;;;;;;;38.00;22.50;;;;;;;7.55;64.60;97746.12;220204;1273;22555;-69
2022/03/29 20:50:41;;;;;;;40.00;24.00;;;;;;;7.53;64.88;97747.32;220183;1271;24233;-69
2022/03/29 20:55:44;;;;;;;40.30;23.60;;;;;;;7.52;64.95;97749.75;220177;1273;23922;-68
2022/03/29 21:00:47;;;;;;;38.00;21.30;;;;;;;7.51;64.82;97743.84;220324;1273;22482;-68
2022/03/29 21:05:49;;;;;;;32.50;18.40;;;;;;;7.53;65.11;97745.69;220059;1274;23875;-67
2022/03/29 21:10:52;;;;;;;28.80;17.40;;;;;;;7.53;64.86;97747.38;220050;1274;23814;-70
2022/03/29 21:15:56;;;;;;;28.60;17.60;;;;;;;7.52;64.70;97747.41;220124;1273;23300;-69
2022/03/29 21:21:01;;;;;;;28.00;17.10;;;;;;;7.51;64.79;97744.75;220127;1273;23805;-69
2022/03/29 21:26:05;;;;;;;26.20;16.50;;;;;;;7.52;64.84;97749.79;220128;1273;22716;-68
2022/03/29 21:31:20;;;;;;;30.50;16.60;;;;;;;7.53;64.66;97745.40;220349;1273;23671;-66
2022/03/29 21:36:23;;;;;;;33.80;18.00;;;;;;;7.56;64.80;97744.78;219789;1274;24412;-67
2022/03/29 21:41:52;;;;;;;27.50;17.50;;;;;;;7.56;64.48;97744.41;220286;1273;24232;-67
2022/03/29 21:47:18;;;;;;;;;;;;;;;7.52;64.55;97745.16;220263;1273;25358;-69
2022/03/29 21:52:22;;;;;;;28.20;17.40;;;;;;;7.47;64.80;97741.88;220258;1273;22963;-70
2022/03/29 21:57:45;;;;;;;29.60;18.50;;;;;;;7.46;64.39;97748.35;220247;1273;25268;-69
2022/03/29 22:03:07;;;;;;;30.20;19.10;;;;;;;7.42;64.44;97753.27;220169;1271;22737;-69
2022/03/29 22:08:33;;;;;;;27.30;18.60;;;;;;;7.39;64.52;97753.95;220210;1273;22585;-69
2022/03/29 22:13:35;;;;;;;28.40;17.00;;;;;;;7.36;64.77;97750.61;219767;1273;22574;-67
2022/03/29 22:18:39;;;;;;;31.30;18.30;;;;;;;7.26;65.06;97756.35;220224;1273;22704;-68
2022/03/29 22:23:51;;;;;;;29.50;17.60;;;;;;;7.19;65.27;97755.56;220117;1273;22475;-68
2022/03/29 22:28:53;;;;;;;29.20;16.90;;;;;;;7.13;65.55;97752.25;220273;1273;22698;-70
2022/03/29 22:33:56;;;;;;;29.20;17.90;;;;;;;7.01;65.49;97749.98;220581;1273;22567;-68
2022/03/29 22:39:00;;;;;;;32.30;18.80;;;;;;;6.84;65.74;97749.22;220123;1273;22706;-69
2022/03/29 22:44:06;;;;;;;31.60;18.30;;;;;;;6.68;65.93;97741.79;219882;1273;22722;-68
2022/03/29 22:49:17;;;;;;;33.60;19.80;;;;;;;6.52;66.42;97738.27;220070;1273;23192;-69
2022/03/29 22:54:22;;;;;;;33.40;19.10;;;;;;;6.45;66.71;97731.82;220025;1273;22747;-69
2022/03/29 22:59:25;;;;;;;34.60;20.10;;;;;;;6.44;67.00;97726.73;219582;1274;22699;-68
2022/03/29 23:04:27;;;;;;;32.30;19.20;;;;;;;6.42;66.89;97725.52;220266;1273;22838;-70
2022/03/29 23:09:30;;;;;;;33.40;20.20;;;;;;;6.37;67.23;97725.20;219637;1276;25374;-69
2022/03/29 23:14:32;;;;;;;35.60;20.30;;;;;;;6.31;67.25;97725.98;220190;1273;25334;-68
2022/03/29 23:19:37;;;;;;;31.60;19.20;;;;;;;6.25;67.28;97729.58;220018;1273;25383;-69
2022/03/29 23:24:40;;;;;;;35.20;20.90;;;;;;;6.13;67.30;97724.71;220030;1273;22472;-68
2022/03/29 23:29:42;;;;;;;40.00;23.40;;;;;;;6.01;67.62;97723.14;220261;1273;25333;-69
2022/03/29 23:34:45;;;;;;;37.90;23.70;;;;;;;5.96;67.71;97719.89;219810;1273;25409;-68
2022/03/29 23:39:47;;;;;;;37.90;22.90;;;;;;;5.96;67.92;97718.35;220297;1273;25458;-68
2022/03/29 23:44:50;;;;;;;41.50;24.10;;;;;;;5.97;68.05;97714.64;220081;1273;25377;-68